Time;durP1;ratioP1;P1;durP2;ratioP2;P2;SDS_P1;SDS_P2;PMS_P1;PMS_P2;Temp;Humidity;BMP_temperature;BMP_pressure;BME280_temperature;BME280_humidity;BME280_pressure;Samples;Min_cycle;Max_cycle;Signal;HPM_P1;HPM_P2
2022/11/04 00:01:20;;;;;;;0.60;0.60;;;;;;;;;;5129363;28;20193;-80
2022/11/04 00:03:46;;;;;;;0.70;0.70;;;;;;;;;;5118017;28;20205;-77
2022/11/04 00:06:12;;;;;;;0.60;0.60;;;;;;;;;;5121021;28;20288;-77
2022/11/04 00:08:38;;;;;;;0.57;0.57;;;;;;;;;;5123713;28;20173;-79
2022/11/04 00:14:09;;;;;;;0.50;0.50;;;;;;;;;;5059831;28;20709;-77
2022/11/04 00:19:19;;;;;;;0.60;0.60;;;;;;;;;;5091987;28;20703;-78
2022/11/04 00:29:56;;;;;;;0.60;0.60;;;;;;;;;;5122638;28;20220;-78
2022/11/04 00:35:08;;;;;;;0.50;0.50;;;;;;;;;;5121428;28;20706;-78
2022/11/04 00:37:41;;;;;;;0.47;0.47;;;;;;;;;;5119026;28;20257;-77
2022/11/04 00:40:07;;;;;;;0.60;0.60;;;;;;;;;;5116998;28;20177;-78
2022/11/04 00:42:33;;;;;;;0.60;0.60;;;;;;;;;;5117496;28;20201;-78
2022/11/04 00:45:00;;;;;;;0.60;0.60;;;;;;;;;;5117154;28;20227;-77
2022/11/04 00:47:26;;;;;;;0.50;0.50;;;;;;;;;;5117401;28;20177;-77
2022/11/04 00:49:52;;;;;;;0.60;0.60;;;;;;;;;;5117266;28;20272;-77
2022/11/04 00:52:18;;;;;;;0.60;0.60;;;;;;;;;;5117550;28;20232;-78
2022/11/04 00:54:44;;;;;;;0.50;0.50;;;;;;;;;;5119001;28;20223;-77
2022/11/04 00:57:10;;;;;;;0.50;0.50;;;;;;;;;;5118296;28;20185;-77
2022/11/04 00:59:36;;;;;;;0.53;0.53;;;;;;;;;;5117635;28;20201;-77
2022/11/04 01:02:02;;;;;;;0.60;0.60;;;;;;;;;;5117377;28;20204;-77
2022/11/04 01:04:28;;;;;;;0.60;0.60;;;;;;;;;;5117305;28;20300;-77
2022/11/04 01:06:54;;;;;;;0.57;0.57;;;;;;;;;;5120250;28;20188;-78
2022/11/04 01:09:20;;;;;;;0.60;0.60;;;;;;;;;;5121332;28;20209;-78
2022/11/04 01:11:46;;;;;;;0.60;0.60;;;;;;;;;;5120541;28;20193;-78
2022/11/04 01:14:12;;;;;;;0.50;0.50;;;;;;;;;;5120533;28;20633;-79
2022/11/04 01:16:38;;;;;;;0.60;0.60;;;;;;;;;;5122056;28;20169;-78
2022/11/04 01:19:04;;;;;;;0.50;0.50;;;;;;;;;;5121559;28;20206;-79
2022/11/04 01:21:30;;;;;;;0.50;0.50;;;;;;;;;;5122074;28;20196;-78
2022/11/04 01:23:57;;;;;;;0.60;0.60;;;;;;;;;;5122068;28;20205;-78
2022/11/04 01:26:24;;;;;;;0.50;0.50;;;;;;;;;;5123312;28;20185;-79
2022/11/04 01:28:51;;;;;;;0.50;0.50;;;;;;;;;;5123139;28;20177;-79
2022/11/04 01:31:20;;;;;;;0.50;0.50;;;;;;;;;;5123211;28;20296;-79
2022/11/04 01:33:46;;;;;;;0.70;0.70;;;;;;;;;;5122493;28;20177;-79
2022/11/04 01:36:12;;;;;;;0.60;0.60;;;;;;;;;;5122966;28;20174;-79
2022/11/04 01:38:38;;;;;;;0.50;0.50;;;;;;;;;;5122044;28;20642;-79
2022/11/04 01:41:05;;;;;;;0.70;0.70;;;;;;;;;;5123741;28;20200;-78
2022/11/04 01:43:45;;;;;;;0.60;0.60;;;;;;;;;;5123569;28;20251;-78
2022/11/04 01:46:20;;;;;;;0.60;0.60;;;;;;;;;;5122227;28;20169;-79
2022/11/04 01:48:46;;;;;;;0.60;0.60;;;;;;;;;;5122242;28;20180;-79
2022/11/04 01:51:13;;;;;;;0.60;0.60;;;;;;;;;;5119851;28;20193;-78
2022/11/04 01:53:41;;;;;;;0.50;0.50;;;;;;;;;;5119204;28;20226;-78
2022/11/04 01:56:10;;;;;;;0.53;0.53;;;;;;;;;;5119115;28;20257;-78
2022/11/04 01:58:38;;;;;;;0.50;0.50;;;;;;;;;;5123185;28;20188;-78
2022/11/04 02:01:04;;;;;;;0.60;0.60;;;;;;;;;;5120734;28;20216;-78
2022/11/04 02:03:32;;;;;;;0.50;0.50;;;;;;;;;;5121342;28;20653;-79
2022/11/04 02:05:59;;;;;;;0.50;0.50;;;;;;;;;;5123579;28;20178;-79
2022/11/04 02:08:25;;;;;;;0.60;0.60;;;;;;;;;;5123143;28;20184;-80
2022/11/04 02:10:58;;;;;;;0.57;0.57;;;;;;;;;;5123099;28;20575;-79
2022/11/04 02:13:24;;;;;;;0.50;0.50;;;;;;;;;;5124647;28;20176;-79
2022/11/04 02:16:01;;;;;;;0.50;0.50;;;;;;;;;;5124384;28;20184;-79
2022/11/04 02:18:51;;;;;;;0.60;0.60;;;;;;;;;;5125388;28;20187;-79
2022/11/04 02:21:23;;;;;;;0.60;0.60;;;;;;;;;;5122803;28;20242;-77
2022/11/04 02:24:01;;;;;;;0.70;0.70;;;;;;;;;;5120912;28;20314;-78
2022/11/04 02:26:47;;;;;;;0.60;0.60;;;;;;;;;;5122425;28;20189;-78
2022/11/04 02:29:25;;;;;;;0.60;0.60;;;;;;;;;;5122076;28;20184;-78
2022/11/04 02:31:56;;;;;;;0.50;0.50;;;;;;;;;;5127232;28;20222;-77
2022/11/04 02:34:38;;;;;;;0.60;0.60;;;;;;;;;;5127282;28;20202;-78
2022/11/04 02:37:22;;;;;;;0.50;0.50;;;;;;;;;;5126863;28;20181;-77
2022/11/04 02:39:59;;;;;;;0.60;0.60;;;;;;;;;;5126175;28;20246;-77
2022/11/04 02:42:24;;;;;;;0.60;0.60;;;;;;;;;;5127020;28;20260;-77
2022/11/04 02:45:07;;;;;;;0.60;0.60;;;;;;;;;;5120574;28;20251;-79
2022/11/04 02:47:36;;;;;;;0.60;0.60;;;;;;;;;;5121271;28;20172;-79
2022/11/04 02:50:04;;;;;;;0.60;0.60;;;;;;;;;;5121730;28;20176;-78
2022/11/04 02:52:51;;;;;;;0.50;0.50;;;;;;;;;;5122056;28;20645;-79
2022/11/04 02:55:23;;;;;;;0.50;0.50;;;;;;;;;;5121269;28;20267;-78
2022/11/04 02:57:51;;;;;;;0.50;0.50;;;;;;;;;;5117782;28;20202;-77
2022/11/04 03:00:20;;;;;;;0.60;0.60;;;;;;;;;;5116752;28;20204;-77
2022/11/04 03:03:02;;;;;;;0.60;0.60;;;;;;;;;;5116409;28;20181;-77
2022/11/04 03:05:31;;;;;;;0.60;0.60;;;;;;;;;;5115109;28;20260;-78
2022/11/04 03:08:00;;;;;;;0.50;0.50;;;;;;;;;;5119337;28;20272;-76
2022/11/04 03:10:35;;;;;;;0.50;0.50;;;;;;;;;;5117713;28;20578;-78
2022/11/04 03:13:05;;;;;;;0.53;0.53;;;;;;;;;;5120457;28;20211;-77
2022/11/04 03:15:33;;;;;;;0.60;0.60;;;;;;;;;;5119753;28;20176;-77
2022/11/04 03:18:16;;;;;;;0.60;0.60;;;;;;;;;;5118945;28;20180;-77
2022/11/04 03:20:44;;;;;;;0.50;0.50;;;;;;;;;;5119583;28;20778;-77
2022/11/04 03:23:10;;;;;;;0.60;0.60;;;;;;;;;;5122041;28;20209;-77
2022/11/04 03:25:39;;;;;;;0.60;0.60;;;;;;;;;;5125899;28;20173;-77
2022/11/04 03:28:05;;;;;;;0.50;0.50;;;;;;;;;;5119625;28;20601;-78
2022/11/04 03:30:37;;;;;;;0.60;0.60;;;;;;;;;;5116760;28;20220;-78
2022/11/04 03:33:03;;;;;;;0.70;0.70;;;;;;;;;;5118645;28;20195;-78
2022/11/04 03:35:29;;;;;;;0.53;0.53;;;;;;;;;;5118178;28;20510;-78
2022/11/04 03:37:56;;;;;;;0.50;0.50;;;;;;;;;;5117917;28;20173;-78
2022/11/04 03:40:22;;;;;;;0.50;0.50;;;;;;;;;;5117079;28;20193;-78
2022/11/04 03:42:52;;;;;;;0.50;0.50;;;;;;;;;;5118852;28;20204;-78
2022/11/04 03:45:18;;;;;;;0.60;0.60;;;;;;;;;;5132421;22;20320;-76
2022/11/04 03:47:44;;;;;;;0.70;0.70;;;;;;;;;;5112043;28;20181;-77
2022/11/04 03:50:34;;;;;;;0.50;0.50;;;;;;;;;;5112721;28;20197;-76
2022/11/04 03:53:00;;;;;;;0.60;0.60;;;;;;;;;;5115767;28;20177;-76
2022/11/04 03:55:44;;;;;;;0.60;0.60;;;;;;;;;;5115097;28;20173;-76
2022/11/04 03:58:18;;;;;;;0.60;0.60;;;;;;;;;;5115026;28;20252;-76
2022/11/04 04:00:48;;;;;;;0.60;0.60;;;;;;;;;;5112153;28;20250;-75
2022/11/04 04:03:20;;;;;;;0.60;0.60;;;;;;;;;;5114117;28;20204;-75
2022/11/04 04:05:59;;;;;;;0.70;0.70;;;;;;;;;;5115472;28;20622;-75
2022/11/04 04:08:31;;;;;;;0.60;0.60;;;;;;;;;;5115460;28;20176;-75
2022/11/04 04:11:07;;;;;;;0.60;0.60;;;;;;;;;;5115103;28;20552;-75
2022/11/04 04:13:36;;;;;;;0.60;0.60;;;;;;;;;;5115629;28;20165;-75
2022/11/04 04:16:11;;;;;;;0.60;0.60;;;;;;;;;;5115407;28;20174;-74
2022/11/04 04:18:48;;;;;;;0.60;0.60;;;;;;;;;;5115148;28;20172;-75
2022/11/04 04:21:15;;;;;;;0.60;0.60;;;;;;;;;;5114974;28;20233;-75
2022/11/04 04:29:13;;;;;;;0.60;0.60;;;;;;;;;;5115052;28;20548;-75
2022/11/04 04:31:49;;;;;;;0.60;0.60;;;;;;;;;;5114538;28;20278;-75
2022/11/04 04:34:22;;;;;;;0.70;0.70;;;;;;;;;;5115149;28;20206;-74
2022/11/04 04:36:51;;;;;;;0.60;0.60;;;;;;;;;;5114973;28;20185;-74
2022/11/04 04:45:03;;;;;;;0.60;0.60;;;;;;;;;;5114596;28;20239;-74
2022/11/04 04:47:32;;;;;;;0.60;0.60;;;;;;;;;;5114701;28;20641;-74
2022/11/04 04:50:00;;;;;;;0.60;0.60;;;;;;;;;;5114022;28;20169;-75
2022/11/04 04:52:31;;;;;;;0.60;0.60;;;;;;;;;;5114740;28;20181;-74
2022/11/04 04:54:57;;;;;;;0.60;0.60;;;;;;;;;;5114531;28;20177;-75
2022/11/04 04:57:23;;;;;;;0.70;0.70;;;;;;;;;;5114597;28;20196;-74
2022/11/04 04:59:49;;;;;;;0.67;0.67;;;;;;;;;;5113973;28;20189;-74
2022/11/04 05:02:15;;;;;;;0.67;0.67;;;;;;;;;;5114326;28;20269;-74
2022/11/04 05:04:41;;;;;;;0.70;0.70;;;;;;;;;;5114069;28;20201;-75
2022/11/04 05:07:08;;;;;;;0.60;0.60;;;;;;;;;;5114499;28;20599;-75
2022/11/04 05:09:34;;;;;;;0.70;0.70;;;;;;;;;;5113901;28;20169;-74
2022/11/04 05:12:00;;;;;;;0.60;0.60;;;;;;;;;;5114118;28;20261;-74
2022/11/04 05:14:26;;;;;;;0.70;0.70;;;;;;;;;;5113914;28;20234;-74
2022/11/04 05:16:52;;;;;;;0.60;0.60;;;;;;;;;;5113970;28;20196;-75
2022/11/04 05:19:18;;;;;;;0.60;0.60;;;;;;;;;;5114003;28;20625;-74
2022/11/04 05:21:44;;;;;;;0.70;0.70;;;;;;;;;;5113548;28;20620;-76
2022/11/04 05:24:10;;;;;;;0.60;0.60;;;;;;;;;;5114053;28;20209;-74
2022/11/04 05:26:36;;;;;;;0.60;0.60;;;;;;;;;;5113902;28;20170;-75
2022/11/04 05:29:02;;;;;;;0.70;0.70;;;;;;;;;;5113623;28;20177;-75
2022/11/04 05:31:29;;;;;;;0.60;0.60;;;;;;;;;;5113222;28;20246;-74
2022/11/04 05:33:55;;;;;;;0.73;0.73;;;;;;;;;;5114022;28;20188;-75
2022/11/04 05:36:21;;;;;;;0.60;0.60;;;;;;;;;;5113796;28;20325;-75
2022/11/04 05:38:50;;;;;;;0.60;0.60;;;;;;;;;;5113814;28;20642;-74
2022/11/04 05:41:26;;;;;;;0.60;0.60;;;;;;;;;;5113034;28;20214;-75
2022/11/04 05:43:52;;;;;;;0.70;0.70;;;;;;;;;;5113351;28;20250;-75
2022/11/04 05:46:18;;;;;;;0.60;0.60;;;;;;;;;;5113577;28;20180;-75
2022/11/04 05:48:44;;;;;;;0.70;0.70;;;;;;;;;;5113980;28;20177;-75
2022/11/04 05:51:14;;;;;;;0.70;0.70;;;;;;;;;;5113256;28;20220;-75
2022/11/04 05:53:40;;;;;;;0.70;0.70;;;;;;;;;;5113491;28;20185;-74
2022/11/04 05:56:06;;;;;;;0.70;0.70;;;;;;;;;;5113365;28;20188;-75
2022/11/04 05:58:32;;;;;;;0.70;0.70;;;;;;;;;;5113275;28;20177;-74
2022/11/04 06:01:11;;;;;;;0.80;0.80;;;;;;;;;;5112460;28;20185;-74
2022/11/04 06:03:37;;;;;;;0.60;0.60;;;;;;;;;;5113495;28;20212;-74
2022/11/04 06:06:03;;;;;;;0.83;0.83;;;;;;;;;;5113163;28;20180;-75
2022/11/04 06:08:30;;;;;;;0.70;0.70;;;;;;;;;;5113019;28;20181;-75
2022/11/04 06:10:56;;;;;;;0.70;0.70;;;;;;;;;;5112437;28;20193;-75
2022/11/04 06:13:22;;;;;;;0.70;0.70;;;;;;;;;;5113298;28;20613;-75
2022/11/04 06:15:48;;;;;;;0.73;0.73;;;;;;;;;;5113029;28;20233;-75
2022/11/04 06:18:14;;;;;;;0.70;0.70;;;;;;;;;;5112999;28;20173;-75
2022/11/04 06:20:40;;;;;;;0.70;0.70;;;;;;;;;;5112390;28;20193;-74
2022/11/04 06:23:06;;;;;;;0.70;0.70;;;;;;;;;;5112405;28;20278;-74
2022/11/04 06:25:32;;;;;;;0.63;0.63;;;;;;;;;;5112128;28;20169;-74
2022/11/04 06:27:58;;;;;;;0.60;0.60;;;;;;;;;;5112272;28;20671;-74
2022/11/04 06:30:23;;;;;;;0.67;0.67;;;;;;;;;;5110648;28;20642;-74
2022/11/04 06:32:49;;;;;;;0.70;0.70;;;;;;;;;;5112269;28;20642;-74
2022/11/04 06:35:15;;;;;;;0.70;0.70;;;;;;;;;;5112550;28;20630;-74
2022/11/04 06:37:41;;;;;;;0.60;0.60;;;;;;;;;;5112058;28;20173;-75
2022/11/04 06:40:08;;;;;;;0.60;0.60;;;;;;;;;;5111055;28;20248;-75
2022/11/04 06:42:34;;;;;;;0.60;0.60;;;;;;;;;;5112142;28;20185;-75
2022/11/04 06:44:59;;;;;;;0.70;0.70;;;;;;;;;;5112297;28;20216;-76
2022/11/04 06:47:25;;;;;;;0.60;0.60;;;;;;;;;;5112239;28;20192;-78
2022/11/04 06:49:51;;;;;;;0.70;0.70;;;;;;;;;;5112040;28;20254;-74
2022/11/04 06:52:17;;;;;;;0.60;0.60;;;;;;;;;;5112022;28;20196;-74
2022/11/04 06:54:43;;;;;;;0.67;0.67;;;;;;;;;;5112072;28;20181;-74
2022/11/04 06:57:11;;;;;;;0.60;0.60;;;;;;;;;;5111941;28;20234;-75
2022/11/04 06:59:37;;;;;;;0.60;0.60;;;;;;;;;;5111556;28;20173;-74
2022/11/04 07:02:03;;;;;;;0.50;0.50;;;;;;;;;;5112336;28;20231;-74
2022/11/04 07:04:29;;;;;;;0.70;0.70;;;;;;;;;;5112264;28;20255;-74
2022/11/04 07:06:55;;;;;;;0.60;0.60;;;;;;;;;;5112004;28;20234;-74
2022/11/04 07:09:21;;;;;;;0.70;0.70;;;;;;;;;;5111738;28;20185;-74
2022/11/04 07:11:47;;;;;;;0.70;0.70;;;;;;;;;;5111371;28;20200;-75
2022/11/04 07:14:13;;;;;;;0.70;0.70;;;;;;;;;;5112558;28;20173;-74
2022/11/04 07:16:39;;;;;;;0.60;0.60;;;;;;;;;;5111785;28;20200;-74
2022/11/04 07:19:05;;;;;;;0.70;0.70;;;;;;;;;;5111822;28;20169;-75
2022/11/04 07:21:31;;;;;;;0.60;0.60;;;;;;;;;;5111192;28;20518;-75
2022/11/04 07:23:57;;;;;;;0.70;0.70;;;;;;;;;;5111850;28;20295;-76
2022/11/04 07:26:23;;;;;;;0.53;0.53;;;;;;;;;;5111417;28;20195;-74
2022/11/04 07:28:49;;;;;;;0.50;0.50;;;;;;;;;;5112227;28;20187;-76
2022/11/04 07:31:16;;;;;;;0.70;0.70;;;;;;;;;;5111532;28;20200;-73
2022/11/04 07:33:42;;;;;;;0.60;0.60;;;;;;;;;;5111544;28;20173;-73
2022/11/04 07:36:10;;;;;;;0.60;0.60;;;;;;;;;;5113595;28;20305;-73
2022/11/04 07:38:36;;;;;;;0.70;0.70;;;;;;;;;;5115817;28;20262;-73
2022/11/04 07:41:02;;;;;;;0.70;0.70;;;;;;;;;;5115221;28;20208;-74
2022/11/04 07:43:29;;;;;;;0.80;0.80;;;;;;;;;;5115814;28;20204;-73
2022/11/04 07:45:58;;;;;;;0.70;0.70;;;;;;;;;;5114927;28;20177;-73
2022/11/04 07:48:24;;;;;;;0.70;0.70;;;;;;;;;;5113062;28;20282;-73
2022/11/04 07:50:53;;;;;;;0.70;0.70;;;;;;;;;;5114807;28;20268;-73
2022/11/04 07:53:19;;;;;;;0.67;0.67;;;;;;;;;;5114955;28;20299;-74
2022/11/04 07:55:49;;;;;;;0.70;0.70;;;;;;;;;;5115002;28;20256;-73
2022/11/04 07:58:15;;;;;;;0.50;0.50;;;;;;;;;;5112877;28;20539;-74
2022/11/04 08:00:41;;;;;;;0.60;0.60;;;;;;;;;;5115027;28;20326;-74
2022/11/04 08:03:07;;;;;;;0.57;0.57;;;;;;;;;;5115570;28;20230;-74
2022/11/04 08:05:33;;;;;;;0.60;0.60;;;;;;;;;;5114771;28;20196;-74
2022/11/04 08:07:59;;;;;;;0.80;0.80;;;;;;;;;;5115518;28;20173;-74
2022/11/04 08:10:25;;;;;;;0.70;0.70;;;;;;;;;;5114933;28;20193;-74
2022/11/04 08:12:51;;;;;;;0.60;0.60;;;;;;;;;;5115230;28;20173;-74
2022/11/04 08:15:17;;;;;;;0.70;0.70;;;;;;;;;;5115483;28;20177;-73
2022/11/04 08:17:43;;;;;;;0.60;0.60;;;;;;;;;;5115238;28;20211;-74
2022/11/04 08:20:10;;;;;;;0.70;0.70;;;;;;;;;;5115905;28;20234;-73
2022/11/04 08:22:36;;;;;;;0.60;0.60;;;;;;;;;;5115135;28;20264;-74
2022/11/04 08:25:02;;;;;;;0.60;0.60;;;;;;;;;;5115338;28;20602;-74
2022/11/04 08:27:28;;;;;;;0.70;0.70;;;;;;;;;;5115188;28;20638;-74
2022/11/04 08:29:53;;;;;;;0.60;0.60;;;;;;;;;;5113549;28;20649;-74
2022/11/04 08:32:19;;;;;;;0.60;0.60;;;;;;;;;;5114553;28;20193;-74
2022/11/04 08:34:45;;;;;;;0.40;0.40;;;;;;;;;;5114532;28;20181;-74
2022/11/04 08:37:15;;;;;;;0.50;0.50;;;;;;;;;;5114611;28;20173;-75
2022/11/04 08:39:41;;;;;;;0.60;0.60;;;;;;;;;;5114341;28;20767;-75
2022/11/04 08:42:07;;;;;;;0.57;0.57;;;;;;;;;;5114890;28;20220;-74
2022/11/04 08:44:34;;;;;;;0.53;0.53;;;;;;;;;;5114594;28;20679;-74
2022/11/04 08:47:00;;;;;;;0.60;0.60;;;;;;;;;;5114695;28;20223;-74
2022/11/04 08:49:26;;;;;;;0.67;0.67;;;;;;;;;;5113825;28;20177;-74
2022/11/04 08:51:58;;;;;;;0.57;0.57;;;;;;;;;;5114597;28;20193;-76
2022/11/04 08:54:24;;;;;;;0.50;0.50;;;;;;;;;;5115342;28;20179;-76
2022/11/04 08:56:50;;;;;;;0.50;0.50;;;;;;;;;;5115235;28;20188;-77
2022/11/04 08:59:16;;;;;;;0.50;0.50;;;;;;;;;;5115415;28;20325;-75
2022/11/04 09:01:43;;;;;;;0.53;0.53;;;;;;;;;;5113802;28;20681;-74
2022/11/04 09:04:10;;;;;;;0.57;0.57;;;;;;;;;;5114188;28;20209;-74
2022/11/04 09:06:38;;;;;;;0.60;0.60;;;;;;;;;;5114475;28;20178;-74
2022/11/04 09:09:05;;;;;;;0.60;0.60;;;;;;;;;;5114437;28;20196;-74
2022/11/04 09:11:32;;;;;;;0.50;0.50;;;;;;;;;;5113849;28;20201;-74
2022/11/04 09:13:59;;;;;;;0.60;0.60;;;;;;;;;;5113765;28;20172;-74
2022/11/04 09:16:26;;;;;;;0.60;0.60;;;;;;;;;;5113749;28;20181;-73
2022/11/04 09:18:52;;;;;;;0.60;0.60;;;;;;;;;;5113787;28;20630;-74
2022/11/04 09:21:18;;;;;;;0.70;0.70;;;;;;;;;;5113722;28;20204;-74
2022/11/04 09:23:45;;;;;;;0.53;0.53;;;;;;;;;;5114999;28;20699;-74
2022/11/04 09:26:12;;;;;;;0.60;0.60;;;;;;;;;;5113990;28;20184;-74
2022/11/04 09:28:39;;;;;;;0.50;0.50;;;;;;;;;;5113940;28;20657;-74
2022/11/04 09:31:06;;;;;;;0.63;0.63;;;;;;;;;;5113163;28;20220;-75
2022/11/04 09:33:32;;;;;;;0.60;0.60;;;;;;;;;;5113720;28;20200;-75
2022/11/04 09:35:58;;;;;;;0.60;0.60;;;;;;;;;;5112993;28;20185;-74
2022/11/04 09:38:25;;;;;;;0.70;0.70;;;;;;;;;;5113475;28;20173;-74
2022/11/04 09:40:51;;;;;;;0.50;0.50;;;;;;;;;;5112956;28;20209;-75
2022/11/04 09:43:29;;;;;;;0.60;0.60;;;;;;;;;;5113863;28;20173;-74
2022/11/04 09:45:55;;;;;;;0.60;0.60;;;;;;;;;;5114017;28;20184;-75
2022/11/04 09:48:24;;;;;;;0.60;0.60;;;;;;;;;;5114045;28;20173;-75
2022/11/04 09:50:52;;;;;;;0.50;0.50;;;;;;;;;;5113155;28;20402;-74
2022/11/04 09:53:18;;;;;;;0.50;0.50;;;;;;;;;;5113928;28;20205;-75
2022/11/04 09:55:52;;;;;;;0.50;0.50;;;;;;;;;;5114264;28;20177;-74
2022/11/04 09:58:18;;;;;;;0.50;0.50;;;;;;;;;;5111287;28;20180;-76
2022/11/04 10:00:47;;;;;;;0.50;0.50;;;;;;;;;;5112046;28;20197;-75
2022/11/04 10:03:19;;;;;;;0.40;0.40;;;;;;;;;;5113229;28;20169;-73
2022/11/04 10:05:48;;;;;;;0.50;0.50;;;;;;;;;;5113260;28;20169;-74
2022/11/04 10:08:14;;;;;;;0.50;0.50;;;;;;;;;;5113082;28;20180;-75
2022/11/04 10:10:55;;;;;;;0.60;0.60;;;;;;;;;;5112671;28;20197;-74
2022/11/04 10:13:34;;;;;;;0.37;0.37;;;;;;;;;;5113349;28;20177;-75
2022/11/04 10:16:07;;;;;;;0.40;0.40;;;;;;;;;;5113252;28;20220;-75
2022/11/04 10:18:40;;;;;;;0.40;0.40;;;;;;;;;;5113242;28;20211;-75
2022/11/04 10:21:24;;;;;;;0.47;0.47;;;;;;;;;;5112150;28;20200;-75
2022/11/04 10:24:02;;;;;;;0.50;0.50;;;;;;;;;;5112643;28;20262;-75
2022/11/04 10:26:31;;;;;;;0.30;0.30;;;;;;;;;;5112522;28;20177;-75
2022/11/04 10:29:10;;;;;;;0.40;0.40;;;;;;;;;;5112534;28;20638;-76
2022/11/04 10:31:38;;;;;;;0.37;0.37;;;;;;;;;;5112152;28;20189;-75
2022/11/04 10:34:07;;;;;;;0.40;0.40;;;;;;;;;;5112883;28;20195;-76
2022/11/04 10:36:34;;;;;;;0.40;0.40;;;;;;;;;;5112941;28;20183;-76
2022/11/04 10:39:02;;;;;;;0.40;0.40;;;;;;;;;;5112632;28;20188;-75
2022/11/04 10:41:28;;;;;;;0.50;0.50;;;;;;;;;;5112278;28;20279;-76
2022/11/04 10:43:57;;;;;;;0.50;0.50;;;;;;;;;;5112394;28;20271;-75
2022/11/04 10:46:36;;;;;;;0.50;0.50;;;;;;;;;;5112532;28;20203;-76
2022/11/04 10:49:25;;;;;;;0.30;0.30;;;;;;;;;;5112475;28;20654;-76
2022/11/04 10:51:51;;;;;;;0.40;0.40;;;;;;;;;;5112240;28;20231;-75
2022/11/04 10:54:17;;;;;;;0.40;0.40;;;;;;;;;;5112097;28;20193;-76
2022/11/04 10:56:47;;;;;;;0.60;0.60;;;;;;;;;;5112028;28;20180;-75
2022/11/04 10:59:18;;;;;;;0.50;0.50;;;;;;;;;;5112304;28;20173;-76
2022/11/04 11:01:49;;;;;;;0.40;0.40;;;;;;;;;;5111610;28;20185;-75
2022/11/04 11:04:24;;;;;;;0.30;0.30;;;;;;;;;;5112094;28;20208;-76
2022/11/04 11:06:51;;;;;;;0.40;0.40;;;;;;;;;;5112201;28;20187;-75
2022/11/04 11:09:21;;;;;;;0.30;0.30;;;;;;;;;;5111859;28;20181;-75
2022/11/04 11:11:48;;;;;;;0.30;0.30;;;;;;;;;;5111665;28;20220;-76
2022/11/04 11:14:17;;;;;;;0.40;0.40;;;;;;;;;;5112117;28;20169;-76
2022/11/04 11:16:44;;;;;;;0.40;0.40;;;;;;;;;;5112476;28;20181;-75
2022/11/04 11:19:16;;;;;;;0.57;0.57;;;;;;;;;;5112622;28;20185;-76
2022/11/04 11:21:49;;;;;;;0.50;0.50;;;;;;;;;;5111727;28;20185;-76
2022/11/04 11:24:19;;;;;;;0.30;0.30;;;;;;;;;;5112534;28;20205;-75
2022/11/04 11:26:48;;;;;;;0.50;0.50;;;;;;;;;;5112641;28;20181;-76
2022/11/04 11:29:20;;;;;;;0.50;0.50;;;;;;;;;;5112188;28;20184;-74
2022/11/04 11:31:46;;;;;;;0.40;0.40;;;;;;;;;;5111217;28;20705;-75
2022/11/04 11:34:18;;;;;;;0.50;0.50;;;;;;;;;;5111593;28;20256;-76
2022/11/04 11:36:46;;;;;;;0.50;0.50;;;;;;;;;;5112116;28;20268;-75
2022/11/04 11:39:14;;;;;;;0.50;0.50;;;;;;;;;;5111742;28;20185;-75
2022/11/04 11:41:57;;;;;;;0.40;0.40;;;;;;;;;;5111070;28;20197;-76
2022/11/04 11:44:31;;;;;;;0.40;0.40;;;;;;;;;;5111299;28;20588;-75
2022/11/04 11:47:02;;;;;;;0.60;0.60;;;;;;;;;;5111512;28;20233;-76
2022/11/04 11:49:33;;;;;;;0.50;0.50;;;;;;;;;;5111193;28;20177;-75
2022/11/04 11:52:17;;;;;;;0.60;0.60;;;;;;;;;;5111642;28;20222;-75
2022/11/04 11:54:46;;;;;;;0.40;0.40;;;;;;;;;;5111483;28;20219;-75
2022/11/04 11:57:31;;;;;;;0.50;0.50;;;;;;;;;;5111427;28;20200;-76
2022/11/04 12:00:05;;;;;;;0.50;0.50;;;;;;;;;;5111074;28;20165;-75
2022/11/04 12:03:01;;;;;;;0.40;0.40;;;;;;;;;;5111313;28;20172;-76
2022/11/04 12:05:29;;;;;;;0.40;0.40;;;;;;;;;;5093474;28;20341;-76
2022/11/04 12:08:16;;;;;;;0.60;0.60;;;;;;;;;;5111278;28;20548;-75
2022/11/04 12:10:48;;;;;;;0.60;0.60;;;;;;;;;;5069036;28;20197;-76
2022/11/04 12:13:18;;;;;;;0.33;0.33;;;;;;;;;;5111289;28;20184;-75
2022/11/04 12:15:47;;;;;;;0.40;0.40;;;;;;;;;;5111339;28;20192;-75
2022/11/04 12:18:32;;;;;;;0.50;0.50;;;;;;;;;;5111243;28;20174;-76
2022/11/04 12:21:02;;;;;;;0.57;0.57;;;;;;;;;;5110732;28;20230;-76
2022/11/04 12:23:48;;;;;;;0.50;0.50;;;;;;;;;;5112086;28;20203;-76
2022/11/04 12:26:40;;;;;;;0.40;0.40;;;;;;;;;;5114966;28;20176;-75
2022/11/04 12:29:29;;;;;;;0.50;0.50;;;;;;;;;;5111294;28;20223;-75
2022/11/04 12:32:00;;;;;;;0.53;0.53;;;;;;;;;;5114296;28;20626;-76
2022/11/04 12:34:34;;;;;;;0.40;0.40;;;;;;;;;;5114909;28;20226;-75
2022/11/04 12:37:07;;;;;;;0.50;0.50;;;;;;;;;;5114988;28;20169;-75
2022/11/04 12:39:33;;;;;;;0.40;0.40;;;;;;;;;;5114341;28;20169;-76
2022/11/04 12:42:02;;;;;;;0.47;0.47;;;;;;;;;;5114572;28;20668;-75
2022/11/04 12:44:34;;;;;;;0.40;0.40;;;;;;;;;;5114486;28;20221;-75
2022/11/04 12:47:06;;;;;;;0.40;0.40;;;;;;;;;;5114691;28;20209;-75
2022/11/04 12:49:46;;;;;;;0.50;0.50;;;;;;;;;;5113886;28;20574;-76
2022/11/04 12:52:12;;;;;;;0.50;0.50;;;;;;;;;;5114715;28;20321;-75
2022/11/04 12:54:53;;;;;;;0.50;0.50;;;;;;;;;;5114345;28;20603;-75
2022/11/04 12:57:27;;;;;;;0.47;0.47;;;;;;;;;;5114310;28;20177;-75
2022/11/04 13:00:01;;;;;;;0.37;0.37;;;;;;;;;;5113705;28;20540;-75
2022/11/04 13:02:34;;;;;;;0.57;0.57;;;;;;;;;;5114226;28;20634;-75
2022/11/04 13:05:08;;;;;;;0.50;0.50;;;;;;;;;;5114060;28;20243;-75
2022/11/04 13:07:41;;;;;;;0.50;0.50;;;;;;;;;;5114298;28;20195;-76
2022/11/04 13:10:14;;;;;;;0.50;0.50;;;;;;;;;;5111591;28;20169;-75
2022/11/04 13:12:42;;;;;;;0.40;0.40;;;;;;;;;;5094134;28;20181;-76
2022/11/04 13:15:22;;;;;;;0.50;0.50;;;;;;;;;;5093653;28;20631;-76
2022/11/04 13:17:50;;;;;;;0.50;0.50;;;;;;;;;;5093405;28;20706;-75
2022/11/04 13:20:22;;;;;;;0.50;0.50;;;;;;;;;;5092921;28;20653;-76
2022/11/04 13:22:51;;;;;;;0.50;0.50;;;;;;;;;;5093506;28;20188;-75
2022/11/04 13:25:37;;;;;;;0.40;0.40;;;;;;;;;;5093564;28;20217;-76
2022/11/04 13:28:03;;;;;;;0.50;0.50;;;;;;;;;;5093230;28;20165;-76
2022/11/04 13:30:29;;;;;;;0.50;0.50;;;;;;;;;;5092882;28;20193;-75
2022/11/04 13:33:12;;;;;;;0.50;0.50;;;;;;;;;;5104648;28;20662;-75
2022/11/04 13:35:41;;;;;;;0.60;0.60;;;;;;;;;;5112873;28;20173;-76
2022/11/04 13:38:11;;;;;;;0.50;0.50;;;;;;;;;;5113813;28;20180;-76
2022/11/04 13:40:46;;;;;;;0.40;0.40;;;;;;;;;;5113727;28;20280;-76
2022/11/04 13:43:45;;;;;;;0.40;0.40;;;;;;;;;;5113662;28;20181;-77
2022/11/04 13:46:17;;;;;;;0.40;0.40;;;;;;;;;;5112880;28;20185;-76
2022/11/04 13:49:03;;;;;;;0.40;0.40;;;;;;;;;;5113437;28;20665;-75
2022/11/04 13:51:35;;;;;;;0.50;0.50;;;;;;;;;;5112817;28;20217;-75
2022/11/04 13:54:02;;;;;;;0.40;0.40;;;;;;;;;;5113158;28;20204;-76
2022/11/04 13:56:38;;;;;;;0.40;0.40;;;;;;;;;;5113303;28;20173;-75
2022/11/04 13:59:24;;;;;;;0.40;0.40;;;;;;;;;;5113186;28;20188;-75
2022/11/04 14:02:10;;;;;;;0.37;0.37;;;;;;;;;;5112941;28;20250;-75
2022/11/04 14:04:37;;;;;;;0.40;0.40;;;;;;;;;;5112902;28;20693;-75
2022/11/04 14:07:03;;;;;;;0.50;0.50;;;;;;;;;;5113080;28;20192;-76
2022/11/04 14:09:29;;;;;;;0.57;0.57;;;;;;;;;;5112730;28;20229;-75
2022/11/04 14:12:15;;;;;;;0.50;0.50;;;;;;;;;;5112744;28;20283;-75
2022/11/04 14:14:43;;;;;;;0.50;0.50;;;;;;;;;;5113290;28;20234;-77
2022/11/04 14:17:29;;;;;;;0.50;0.50;;;;;;;;;;5113337;28;20214;-76
2022/11/04 14:20:00;;;;;;;0.50;0.50;;;;;;;;;;5112365;28;20172;-76
2022/11/04 14:22:30;;;;;;;0.50;0.50;;;;;;;;;;5114626;28;20539;-77
2022/11/04 14:25:01;;;;;;;0.40;0.40;;;;;;;;;;5112995;28;20204;-76
2022/11/04 14:27:37;;;;;;;0.50;0.50;;;;;;;;;;5113428;28;20169;-76
2022/11/04 14:30:04;;;;;;;0.40;0.40;;;;;;;;;;5112006;28;20180;-76
2022/11/04 14:32:31;;;;;;;0.50;0.50;;;;;;;;;;5112684;28;20181;-75
2022/11/04 14:34:59;;;;;;;0.50;0.50;;;;;;;;;;5111661;28;20273;-75
2022/11/04 14:37:27;;;;;;;0.50;0.50;;;;;;;;;;5111950;28;20177;-76
2022/11/04 14:39:56;;;;;;;0.40;0.40;;;;;;;;;;5111314;28;20188;-75
2022/11/04 14:42:49;;;;;;;0.40;0.40;;;;;;;;;;5111839;28;20680;-75
2022/11/04 14:45:17;;;;;;;0.47;0.47;;;;;;;;;;5108379;28;20225;-76
2022/11/04 14:47:46;;;;;;;0.43;0.43;;;;;;;;;;5111800;28;20630;-76
2022/11/04 14:50:20;;;;;;;0.50;0.50;;;;;;;;;;5111539;28;20264;-76
2022/11/04 14:52:49;;;;;;;0.50;0.50;;;;;;;;;;5112565;28;20172;-74
2022/11/04 14:55:17;;;;;;;0.50;0.50;;;;;;;;;;5112136;28;20259;-74
2022/11/04 14:57:45;;;;;;;0.53;0.53;;;;;;;;;;5112160;28;20664;-75
2022/11/04 15:00:20;;;;;;;0.43;0.43;;;;;;;;;;5111381;28;20202;-75
2022/11/04 15:02:47;;;;;;;0.50;0.50;;;;;;;;;;5112044;28;20173;-74
2022/11/04 15:05:24;;;;;;;0.53;0.53;;;;;;;;;;5112013;28;20655;-74
2022/11/04 15:07:50;;;;;;;0.43;0.43;;;;;;;;;;5112115;28;20201;-75
2022/11/04 15:10:19;;;;;;;0.53;0.53;;;;;;;;;;5111263;28;20208;-75
2022/11/04 15:12:53;;;;;;;0.40;0.40;;;;;;;;;;5111345;28;20188;-74
2022/11/04 15:15:24;;;;;;;0.60;0.60;;;;;;;;;;5111527;28;20184;-74
2022/11/04 15:17:50;;;;;;;0.60;0.60;;;;;;;;;;5111596;28;20177;-74
2022/11/04 15:20:22;;;;;;;0.60;0.60;;;;;;;;;;5110610;28;20587;-74
2022/11/04 15:22:48;;;;;;;0.60;0.60;;;;;;;;;;5111159;28;20173;-74
2022/11/04 15:25:14;;;;;;;0.50;0.50;;;;;;;;;;5110864;28;20215;-75
2022/11/04 15:27:40;;;;;;;0.50;0.50;;;;;;;;;;5108495;28;20181;-74